sensor_id;sensor_type;location;lat;lon;timestamp;P1;durP1;ratioP1;P2;durP2;ratioP2
63016;SDS011;50274;45.640;11.756;2023-07-20T00:00:18;11.50;;;5.03;;
63016;SDS011;50274;45.640;11.756;2023-07-20T00:02:44;11.23;;;5.65;;
63016;SDS011;50274;45.640;11.756;2023-07-20T00:05:10;11.00;;;5.75;;
63016;SDS011;50274;45.640;11.756;2023-07-20T01:08:18;15.27;;;8.98;;
63016;SDS011;50274;45.640;11.756;2023-07-20T01:10:59;18.30;;;9.18;;
63016;SDS011;50274;45.640;11.756;2023-07-20T01:13:31;14.90;;;9.05;;
63016;SDS011;50274;45.640;11.756;2023-07-20T01:15:59;16.53;;;9.57;;
63016;SDS011;50274;45.640;11.756;2023-07-20T01:18:26;16.67;;;9.00;;
63016;SDS011;50274;45.640;11.756;2023-07-20T01:20:57;14.13;;;8.10;;
63016;SDS011;50274;45.640;11.756;2023-07-20T01:29:34;16.17;;;7.47;;
63016;SDS011;50274;45.640;11.756;2023-07-20T01:32:11;13.50;;;7.82;;
63016;SDS011;50274;45.640;11.756;2023-07-20T01:34:37;12.90;;;6.80;;
63016;SDS011;50274;45.640;11.756;2023-07-20T01:37:05;14.25;;;7.32;;
63016;SDS011;50274;45.640;11.756;2023-07-20T01:39:31;15.73;;;8.63;;
63016;SDS011;50274;45.640;11.756;2023-07-20T01:42:00;15.67;;;9.27;;
63016;SDS011;50274;45.640;11.756;2023-07-20T01:44:27;12.93;;;7.70;;
63016;SDS011;50274;45.640;11.756;2023-07-20T01:46:55;12.10;;;7.43;;
63016;SDS011;50274;45.640;11.756;2023-07-20T01:49:21;12.48;;;7.22;;
63016;SDS011;50274;45.640;11.756;2023-07-20T01:51:49;13.38;;;6.90;;
63016;SDS011;50274;45.640;11.756;2023-07-20T01:54:17;12.23;;;6.37;;
63016;SDS011;50274;45.640;11.756;2023-07-20T01:56:43;13.55;;;6.70;;
63016;SDS011;50274;45.640;11.756;2023-07-20T01:59:12;12.02;;;6.68;;
63016;SDS011;50274;45.640;11.756;2023-07-20T02:01:37;14.73;;;7.67;;
63016;SDS011;50274;45.640;11.756;2023-07-20T02:04:08;12.07;;;6.45;;
63016;SDS011;50274;45.640;11.756;2023-07-20T02:06:34;14.10;;;6.45;;
63016;SDS011;50274;45.640;11.756;2023-07-20T02:09:00;12.18;;;7.05;;
63016;SDS011;50274;45.640;11.756;2023-07-20T02:11:28;13.47;;;6.90;;
63016;SDS011;50274;45.640;11.756;2023-07-20T02:13:54;9.77;;;5.72;;
63016;SDS011;50274;45.640;11.756;2023-07-20T02:16:22;16.52;;;6.70;;
63016;SDS011;50274;45.640;11.756;2023-07-20T02:18:50;13.55;;;6.05;;
63016;SDS011;50274;45.640;11.756;2023-07-20T02:21:16;11.70;;;7.33;;
63016;SDS011;50274;45.640;11.756;2023-07-20T02:23:41;11.90;;;7.95;;
63016;SDS011;50274;45.640;11.756;2023-07-20T02:26:10;11.38;;;7.40;;
63016;SDS011;50274;45.640;11.756;2023-07-20T02:28:35;12.03;;;7.60;;
63016;SDS011;50274;45.640;11.756;2023-07-20T02:31:01;14.73;;;7.03;;
63016;SDS011;50274;45.640;11.756;2023-07-20T02:33:27;13.57;;;7.30;;
63016;SDS011;50274;45.640;11.756;2023-07-20T02:35:55;12.23;;;7.15;;
63016;SDS011;50274;45.640;11.756;2023-07-20T02:38:21;11.13;;;7.03;;
63016;SDS011;50274;45.640;11.756;2023-07-20T02:40:49;14.13;;;7.30;;
63016;SDS011;50274;45.640;11.756;2023-07-20T02:43:15;15.00;;;7.15;;
63016;SDS011;50274;45.640;11.756;2023-07-20T02:45:46;12.27;;;6.25;;
63016;SDS011;50274;45.640;11.756;2023-07-20T02:48:12;13.93;;;6.55;;
63016;SDS011;50274;45.640;11.756;2023-07-20T02:50:40;11.98;;;7.57;;
63016;SDS011;50274;45.640;11.756;2023-07-20T02:53:06;11.77;;;8.33;;
63016;SDS011;50274;45.640;11.756;2023-07-20T02:55:32;12.85;;;8.32;;
63016;SDS011;50274;45.640;11.756;2023-07-20T02:57:58;13.00;;;8.05;;
63016;SDS011;50274;45.640;11.756;2023-07-20T03:00:24;17.73;;;7.73;;
63016;SDS011;50274;45.640;11.756;2023-07-20T03:02:50;11.40;;;6.72;;
63016;SDS011;50274;45.640;11.756;2023-07-20T03:05:23;11.90;;;7.25;;
63016;SDS011;50274;45.640;11.756;2023-07-20T03:07:53;11.95;;;6.15;;
63016;SDS011;50274;45.640;11.756;2023-07-20T03:10:19;12.02;;;6.55;;
63016;SDS011;50274;45.640;11.756;2023-07-20T03:12:47;12.73;;;6.70;;
63016;SDS011;50274;45.640;11.756;2023-07-20T03:15:13;10.75;;;6.28;;
63016;SDS011;50274;45.640;11.756;2023-07-20T03:17:44;10.50;;;6.65;;
63016;SDS011;50274;45.640;11.756;2023-07-20T03:20:14;9.98;;;6.00;;
63016;SDS011;50274;45.640;11.756;2023-07-20T03:22:43;9.57;;;5.67;;
63016;SDS011;50274;45.640;11.756;2023-07-20T03:25:11;9.27;;;5.50;;
63016;SDS011;50274;45.640;11.756;2023-07-20T03:27:39;9.68;;;5.80;;
63016;SDS011;50274;45.640;11.756;2023-07-20T03:30:09;8.63;;;5.13;;
63016;SDS011;50274;45.640;11.756;2023-07-20T03:32:39;8.65;;;5.55;;
63016;SDS011;50274;45.640;11.756;2023-07-20T03:35:05;11.30;;;6.03;;
63016;SDS011;50274;45.640;11.756;2023-07-20T03:37:35;11.63;;;5.70;;
63016;SDS011;50274;45.640;11.756;2023-07-20T03:40:03;10.05;;;5.20;;
63016;SDS011;50274;45.640;11.756;2023-07-20T03:42:32;8.70;;;5.35;;
63016;SDS011;50274;45.640;11.756;2023-07-20T03:45:00;8.43;;;5.15;;
63016;SDS011;50274;45.640;11.756;2023-07-20T03:47:28;11.60;;;4.97;;
63016;SDS011;50274;45.640;11.756;2023-07-20T03:49:58;8.77;;;4.35;;
63016;SDS011;50274;45.640;11.756;2023-07-20T03:52:26;9.63;;;4.57;;
63016;SDS011;50274;45.640;11.756;2023-07-20T03:54:54;6.88;;;4.00;;
63016;SDS011;50274;45.640;11.756;2023-07-20T03:57:22;7.53;;;4.10;;
63016;SDS011;50274;45.640;11.756;2023-07-20T03:59:50;8.53;;;3.73;;
63016;SDS011;50274;45.640;11.756;2023-07-20T04:02:18;8.23;;;4.45;;
63016;SDS011;50274;45.640;11.756;2023-07-20T04:04:46;9.20;;;5.13;;
63016;SDS011;50274;45.640;11.756;2023-07-20T04:07:15;12.73;;;4.78;;
63016;SDS011;50274;45.640;11.756;2023-07-20T04:09:44;8.67;;;4.17;;
63016;SDS011;50274;45.640;11.756;2023-07-20T04:12:14;10.38;;;5.13;;
63016;SDS011;50274;45.640;11.756;2023-07-20T04:14:42;8.98;;;4.13;;
63016;SDS011;50274;45.640;11.756;2023-07-20T04:17:10;8.75;;;4.55;;
63016;SDS011;50274;45.640;11.756;2023-07-20T04:19:38;8.67;;;4.23;;
63016;SDS011;50274;45.640;11.756;2023-07-20T04:22:04;9.65;;;4.38;;
63016;SDS011;50274;45.640;11.756;2023-07-20T04:24:30;7.60;;;3.75;;
63016;SDS011;50274;45.640;11.756;2023-07-20T04:26:58;9.27;;;4.20;;
63016;SDS011;50274;45.640;11.756;2023-07-20T04:29:26;7.90;;;4.00;;
63016;SDS011;50274;45.640;11.756;2023-07-20T04:31:54;8.07;;;4.07;;
63016;SDS011;50274;45.640;11.756;2023-07-20T04:34:26;10.52;;;4.38;;
63016;SDS011;50274;45.640;11.756;2023-07-20T04:36:55;8.38;;;4.10;;
63016;SDS011;50274;45.640;11.756;2023-07-20T04:39:24;11.82;;;4.05;;
63016;SDS011;50274;45.640;11.756;2023-07-20T04:41:54;10.57;;;4.43;;
63016;SDS011;50274;45.640;11.756;2023-07-20T04:44:20;10.32;;;4.30;;
63016;SDS011;50274;45.640;11.756;2023-07-20T04:46:46;9.95;;;4.55;;
63016;SDS011;50274;45.640;11.756;2023-07-20T04:49:17;8.32;;;4.03;;
63016;SDS011;50274;45.640;11.756;2023-07-20T04:51:45;8.93;;;4.50;;
63016;SDS011;50274;45.640;11.756;2023-07-20T04:54:13;11.50;;;4.37;;
63016;SDS011;50274;45.640;11.756;2023-07-20T04:56:42;8.77;;;4.00;;
63016;SDS011;50274;45.640;11.756;2023-07-20T04:59:07;7.63;;;3.80;;
63016;SDS011;50274;45.640;11.756;2023-07-20T05:01:36;9.73;;;3.92;;
63016;SDS011;50274;45.640;11.756;2023-07-20T05:04:06;7.23;;;3.30;;
63016;SDS011;50274;45.640;11.756;2023-07-20T05:06:37;10.35;;;3.63;;
63016;SDS011;50274;45.640;11.756;2023-07-20T05:09:04;6.03;;;3.55;;
63016;SDS011;50274;45.640;11.756;2023-07-20T05:11:31;7.88;;;3.70;;
63016;SDS011;50274;45.640;11.756;2023-07-20T05:13:57;8.90;;;3.50;;
63016;SDS011;50274;45.640;11.756;2023-07-20T05:16:25;6.35;;;3.08;;
63016;SDS011;50274;45.640;11.756;2023-07-20T05:18:54;6.00;;;3.42;;
63016;SDS011;50274;45.640;11.756;2023-07-20T05:21:22;6.72;;;3.28;;
63016;SDS011;50274;45.640;11.756;2023-07-20T05:23:48;8.57;;;3.63;;
63016;SDS011;50274;45.640;11.756;2023-07-20T05:26:16;6.43;;;2.80;;
63016;SDS011;50274;45.640;11.756;2023-07-20T05:28:45;8.38;;;3.90;;
63016;SDS011;50274;45.640;11.756;2023-07-20T05:31:13;9.77;;;3.70;;
63016;SDS011;50274;45.640;11.756;2023-07-20T05:33:41;8.37;;;3.83;;
63016;SDS011;50274;45.640;11.756;2023-07-20T05:36:09;7.18;;;3.60;;
63016;SDS011;50274;45.640;11.756;2023-07-20T05:38:37;7.10;;;3.80;;
63016;SDS011;50274;45.640;11.756;2023-07-20T05:41:05;7.00;;;3.55;;
63016;SDS011;50274;45.640;11.756;2023-07-20T05:43:37;11.52;;;4.72;;
63016;SDS011;50274;45.640;11.756;2023-07-20T05:46:05;10.20;;;3.50;;
63016;SDS011;50274;45.640;11.756;2023-07-20T05:48:31;7.30;;;3.63;;
63016;SDS011;50274;45.640;11.756;2023-07-20T05:51:00;7.93;;;3.10;;
63016;SDS011;50274;45.640;11.756;2023-07-20T05:53:28;8.45;;;3.10;;
63016;SDS011;50274;45.640;11.756;2023-07-20T05:55:54;8.43;;;3.33;;
63016;SDS011;50274;45.640;11.756;2023-07-20T05:58:22;7.40;;;2.78;;
63016;SDS011;50274;45.640;11.756;2023-07-20T06:00:51;6.15;;;2.97;;
63016;SDS011;50274;45.640;11.756;2023-07-20T06:03:22;8.20;;;3.22;;
63016;SDS011;50274;45.640;11.756;2023-07-20T06:05:48;9.45;;;3.47;;
63016;SDS011;50274;45.640;11.756;2023-07-20T06:08:16;7.10;;;3.10;;
63016;SDS011;50274;45.640;11.756;2023-07-20T06:10:42;6.47;;;3.40;;
63016;SDS011;50274;45.640;11.756;2023-07-20T06:13:18;7.13;;;3.60;;
63016;SDS011;50274;45.640;11.756;2023-07-20T06:15:49;8.25;;;3.83;;
63016;SDS011;50274;45.640;11.756;2023-07-20T06:18:15;6.88;;;3.35;;
63016;SDS011;50274;45.640;11.756;2023-07-20T06:20:48;8.67;;;3.60;;
63016;SDS011;50274;45.640;11.756;2023-07-20T06:23:19;7.18;;;3.28;;
63016;SDS011;50274;45.640;11.756;2023-07-20T06:25:45;7.47;;;3.33;;
63016;SDS011;50274;45.640;11.756;2023-07-20T06:28:11;9.48;;;3.35;;
63016;SDS011;50274;45.640;11.756;2023-07-20T06:30:40;6.68;;;3.20;;
63016;SDS011;50274;45.640;11.756;2023-07-20T06:33:11;7.77;;;3.60;;
63016;SDS011;50274;45.640;11.756;2023-07-20T06:35:40;8.63;;;3.50;;
63016;SDS011;50274;45.640;11.756;2023-07-20T06:38:08;10.57;;;3.88;;
63016;SDS011;50274;45.640;11.756;2023-07-20T06:40:37;5.88;;;3.42;;
63016;SDS011;50274;45.640;11.756;2023-07-20T06:43:07;6.80;;;3.38;;
63016;SDS011;50274;45.640;11.756;2023-07-20T06:45:38;7.73;;;3.70;;
63016;SDS011;50274;45.640;11.756;2023-07-20T06:48:04;8.55;;;3.28;;
63016;SDS011;50274;45.640;11.756;2023-07-20T06:50:32;7.28;;;3.33;;
63016;SDS011;50274;45.640;11.756;2023-07-20T06:52:59;7.15;;;3.42;;
63016;SDS011;50274;45.640;11.756;2023-07-20T06:55:25;8.13;;;3.47;;
63016;SDS011;50274;45.640;11.756;2023-07-20T06:57:51;6.87;;;3.20;;
63016;SDS011;50274;45.640;11.756;2023-07-20T07:00:17;8.95;;;3.33;;
63016;SDS011;50274;45.640;11.756;2023-07-20T07:02:43;6.85;;;3.40;;
63016;SDS011;50274;45.640;11.756;2023-07-20T07:05:09;8.03;;;3.23;;
63016;SDS011;50274;45.640;11.756;2023-07-20T07:07:35;6.28;;;3.33;;
63016;SDS011;50274;45.640;11.756;2023-07-20T07:10:01;8.40;;;3.25;;
63016;SDS011;50274;45.640;11.756;2023-07-20T07:12:30;7.47;;;3.72;;
63016;SDS011;50274;45.640;11.756;2023-07-20T07:14:56;7.77;;;3.23;;
63016;SDS011;50274;45.640;11.756;2023-07-20T07:17:22;7.70;;;3.35;;
63016;SDS011;50274;45.640;11.756;2023-07-20T07:19:48;7.45;;;3.60;;
63016;SDS011;50274;45.640;11.756;2023-07-20T07:22:19;8.63;;;4.23;;
63016;SDS011;50274;45.640;11.756;2023-07-20T07:27:52;10.60;;;3.97;;
63016;SDS011;50274;45.640;11.756;2023-07-20T07:30:19;9.88;;;4.50;;
63016;SDS011;50274;45.640;11.756;2023-07-20T07:32:48;9.90;;;3.70;;
63016;SDS011;50274;45.640;11.756;2023-07-20T07:35:14;6.93;;;4.10;;
63016;SDS011;50274;45.640;11.756;2023-07-20T07:37:42;11.32;;;4.45;;
63016;SDS011;50274;45.640;11.756;2023-07-20T07:40:12;7.53;;;3.55;;
63016;SDS011;50274;45.640;11.756;2023-07-20T07:42:39;11.85;;;4.70;;
63016;SDS011;50274;45.640;11.756;2023-07-20T07:45:05;8.77;;;3.80;;
63016;SDS011;50274;45.640;11.756;2023-07-20T07:47:34;9.50;;;3.72;;
63016;SDS011;50274;45.640;11.756;2023-07-20T07:50:00;8.32;;;3.75;;
63016;SDS011;50274;45.640;11.756;2023-07-20T07:52:26;8.68;;;3.50;;
63016;SDS011;50274;45.640;11.756;2023-07-20T07:54:53;9.73;;;3.60;;
63016;SDS011;50274;45.640;11.756;2023-07-20T07:57:19;8.63;;;3.65;;
63016;SDS011;50274;45.640;11.756;2023-07-20T07:59:47;7.72;;;3.10;;
63016;SDS011;50274;45.640;11.756;2023-07-20T08:02:13;9.00;;;3.38;;
63016;SDS011;50274;45.640;11.756;2023-07-20T08:04:42;9.20;;;3.70;;
63016;SDS011;50274;45.640;11.756;2023-07-20T08:07:08;10.63;;;3.20;;
63016;SDS011;50274;45.640;11.756;2023-07-20T08:09:36;7.78;;;3.00;;
63016;SDS011;50274;45.640;11.756;2023-07-20T08:12:03;8.38;;;3.20;;
63016;SDS011;50274;45.640;11.756;2023-07-20T08:14:31;7.43;;;3.22;;
63016;SDS011;50274;45.640;11.756;2023-07-20T08:16:57;8.85;;;3.78;;
63016;SDS011;50274;45.640;11.756;2023-07-20T08:19:23;7.40;;;3.07;;
63016;SDS011;50274;45.640;11.756;2023-07-20T08:21:50;6.47;;;3.10;;
63016;SDS011;50274;45.640;11.756;2023-07-20T08:24:16;8.50;;;3.25;;
63016;SDS011;50274;45.640;11.756;2023-07-20T08:26:42;7.32;;;3.40;;
63016;SDS011;50274;45.640;11.756;2023-07-20T08:29:10;8.15;;;3.10;;
63016;SDS011;50274;45.640;11.756;2023-07-20T08:31:41;9.00;;;3.80;;
63016;SDS011;50274;45.640;11.756;2023-07-20T08:34:07;8.05;;;3.63;;
63016;SDS011;50274;45.640;11.756;2023-07-20T08:36:36;7.32;;;3.40;;
63016;SDS011;50274;45.640;11.756;2023-07-20T08:42:15;8.20;;;3.25;;
63016;SDS011;50274;45.640;11.756;2023-07-20T08:44:45;6.97;;;2.77;;
63016;SDS011;50274;45.640;11.756;2023-07-20T08:47:15;8.60;;;3.25;;
63016;SDS011;50274;45.640;11.756;2023-07-20T08:49:51;7.70;;;2.97;;
63016;SDS011;50274;45.640;11.756;2023-07-20T08:52:19;7.85;;;2.83;;
63016;SDS011;50274;45.640;11.756;2023-07-20T08:54:50;7.82;;;3.08;;
63016;SDS011;50274;45.640;11.756;2023-07-20T08:57:19;7.43;;;2.70;;
63016;SDS011;50274;45.640;11.756;2023-07-20T08:59:49;8.23;;;3.13;;
63016;SDS011;50274;45.640;11.756;2023-07-20T09:02:17;5.93;;;2.58;;
63016;SDS011;50274;45.640;11.756;2023-07-20T09:04:44;6.50;;;2.53;;
63016;SDS011;50274;45.640;11.756;2023-07-20T09:07:10;7.90;;;2.50;;
63016;SDS011;50274;45.640;11.756;2023-07-20T09:09:43;6.60;;;2.30;;
63016;SDS011;50274;45.640;11.756;2023-07-20T09:12:15;8.75;;;2.35;;
63016;SDS011;50274;45.640;11.756;2023-07-20T09:14:44;5.45;;;2.25;;
63016;SDS011;50274;45.640;11.756;2023-07-20T09:17:13;6.10;;;2.50;;
63016;SDS011;50274;45.640;11.756;2023-07-20T09:19:47;9.13;;;2.50;;
63016;SDS011;50274;45.640;11.756;2023-07-20T09:22:13;6.40;;;2.47;;
63016;SDS011;50274;45.640;11.756;2023-07-20T09:24:46;5.35;;;2.40;;
63016;SDS011;50274;45.640;11.756;2023-07-20T09:27:17;5.55;;;2.20;;
63016;SDS011;50274;45.640;11.756;2023-07-20T09:32:40;6.32;;;2.60;;
63016;SDS011;50274;45.640;11.756;2023-07-20T09:35:14;6.53;;;2.47;;
63016;SDS011;50274;45.640;11.756;2023-07-20T09:37:49;6.40;;;2.28;;
63016;SDS011;50274;45.640;11.756;2023-07-20T09:40:27;6.20;;;2.45;;
63016;SDS011;50274;45.640;11.756;2023-07-20T09:42:53;5.57;;;2.35;;
63016;SDS011;50274;45.640;11.756;2023-07-20T09:45:50;5.53;;;2.47;;
63016;SDS011;50274;45.640;11.756;2023-07-20T09:48:15;6.60;;;2.80;;
63016;SDS011;50274;45.640;11.756;2023-07-20T09:50:42;5.30;;;2.45;;
63016;SDS011;50274;45.640;11.756;2023-07-20T09:53:14;5.20;;;2.13;;
63016;SDS011;50274;45.640;11.756;2023-07-20T09:55:43;5.28;;;2.15;;
63016;SDS011;50274;45.640;11.756;2023-07-20T09:58:10;6.78;;;2.47;;
63016;SDS011;50274;45.640;11.756;2023-07-20T10:00:40;5.13;;;2.00;;
63016;SDS011;50274;45.640;11.756;2023-07-20T10:03:11;5.93;;;2.45;;
63016;SDS011;50274;45.640;11.756;2023-07-20T10:05:43;5.32;;;2.45;;
63016;SDS011;50274;45.640;11.756;2023-07-20T10:08:12;7.00;;;2.25;;
63016;SDS011;50274;45.640;11.756;2023-07-20T10:10:41;7.45;;;2.65;;
63016;SDS011;50274;45.640;11.756;2023-07-20T10:13:10;5.63;;;2.30;;
63016;SDS011;50274;45.640;11.756;2023-07-20T10:15:54;5.45;;;2.58;;
63016;SDS011;50274;45.640;11.756;2023-07-20T10:18:50;8.63;;;2.97;;
63016;SDS011;50274;45.640;11.756;2023-07-20T10:21:22;5.28;;;2.22;;
63016;SDS011;50274;45.640;11.756;2023-07-20T10:23:48;6.32;;;2.83;;
63016;SDS011;50274;45.640;11.756;2023-07-20T10:26:16;5.30;;;2.20;;
63016;SDS011;50274;45.640;11.756;2023-07-20T10:28:46;7.93;;;2.47;;
63016;SDS011;50274;45.640;11.756;2023-07-20T10:31:14;6.97;;;2.50;;
63016;SDS011;50274;45.640;11.756;2023-07-20T10:33:42;7.70;;;2.75;;
63016;SDS011;50274;45.640;11.756;2023-07-20T10:36:11;6.07;;;2.60;;
63016;SDS011;50274;45.640;11.756;2023-07-20T10:41:18;7.30;;;2.63;;
63016;SDS011;50274;45.640;11.756;2023-07-20T10:43:45;5.13;;;2.13;;
63016;SDS011;50274;45.640;11.756;2023-07-20T10:46:15;6.95;;;2.38;;
63016;SDS011;50274;45.640;11.756;2023-07-20T10:49:03;6.10;;;2.30;;
63016;SDS011;50274;45.640;11.756;2023-07-20T10:51:38;4.73;;;2.10;;
63016;SDS011;50274;45.640;11.756;2023-07-20T10:56:41;5.10;;;2.10;;
63016;SDS011;50274;45.640;11.756;2023-07-20T10:59:52;6.25;;;1.90;;
63016;SDS011;50274;45.640;11.756;2023-07-20T11:01:56;6.45;;;2.45;;
63016;SDS011;50274;45.640;11.756;2023-07-20T11:04:39;5.30;;;1.90;;
63016;SDS011;50274;45.640;11.756;2023-07-20T11:07:06;4.97;;;1.95;;
63016;SDS011;50274;45.640;11.756;2023-07-20T11:09:36;5.40;;;1.95;;
63016;SDS011;50274;45.640;11.756;2023-07-20T11:12:10;6.65;;;1.92;;
63016;SDS011;50274;45.640;11.756;2023-07-20T11:14:54;4.50;;;1.60;;
63016;SDS011;50274;45.640;11.756;2023-07-20T11:17:22;7.07;;;2.00;;
63016;SDS011;50274;45.640;11.756;2023-07-20T11:19:58;6.50;;;2.35;;
63016;SDS011;50274;45.640;11.756;2023-07-20T11:22:28;7.10;;;2.25;;
63016;SDS011;50274;45.640;11.756;2023-07-20T11:24:56;6.22;;;2.05;;
63016;SDS011;50274;45.640;11.756;2023-07-20T11:27:23;5.10;;;1.80;;
63016;SDS011;50274;45.640;11.756;2023-07-20T11:29:52;7.03;;;2.20;;
63016;SDS011;50274;45.640;11.756;2023-07-20T11:32:22;4.85;;;1.52;;
63016;SDS011;50274;45.640;11.756;2023-07-20T11:34:49;4.50;;;1.77;;
63016;SDS011;50274;45.640;11.756;2023-07-20T11:37:18;5.60;;;2.42;;
63016;SDS011;50274;45.640;11.756;2023-07-20T11:39:48;4.88;;;2.17;;
63016;SDS011;50274;45.640;11.756;2023-07-20T11:42:14;6.00;;;2.20;;
63016;SDS011;50274;45.640;11.756;2023-07-20T11:44:45;4.25;;;1.70;;
63016;SDS011;50274;45.640;11.756;2023-07-20T11:47:29;6.63;;;2.25;;
63016;SDS011;50274;45.640;11.756;2023-07-20T11:50:13;5.78;;;2.13;;
63016;SDS011;50274;45.640;11.756;2023-07-20T11:52:54;5.78;;;2.08;;
63016;SDS011;50274;45.640;11.756;2023-07-20T11:55:25;8.20;;;2.30;;
63016;SDS011;50274;45.640;11.756;2023-07-20T11:58:06;5.45;;;2.00;;
63016;SDS011;50274;45.640;11.756;2023-07-20T12:00:33;5.85;;;2.13;;
63016;SDS011;50274;45.640;11.756;2023-07-20T12:03:00;5.68;;;2.03;;
63016;SDS011;50274;45.640;11.756;2023-07-20T12:05:31;4.75;;;2.20;;
63016;SDS011;50274;45.640;11.756;2023-07-20T12:08:00;4.53;;;1.67;;
63016;SDS011;50274;45.640;11.756;2023-07-20T12:10:28;6.22;;;2.30;;
63016;SDS011;50274;45.640;11.756;2023-07-20T12:13:00;6.22;;;1.88;;
63016;SDS011;50274;45.640;11.756;2023-07-20T12:15:32;6.00;;;2.20;;
63016;SDS011;50274;45.640;11.756;2023-07-20T12:18:01;4.35;;;1.92;;
63016;SDS011;50274;45.640;11.756;2023-07-20T12:20:34;5.40;;;2.10;;
63016;SDS011;50274;45.640;11.756;2023-07-20T12:23:07;5.45;;;2.00;;
63016;SDS011;50274;45.640;11.756;2023-07-20T12:25:38;6.45;;;2.20;;
63016;SDS011;50274;45.640;11.756;2023-07-20T12:28:11;5.63;;;2.03;;
63016;SDS011;50274;45.640;11.756;2023-07-20T12:30:41;5.80;;;2.25;;
63016;SDS011;50274;45.640;11.756;2023-07-20T12:33:08;5.30;;;1.87;;
63016;SDS011;50274;45.640;11.756;2023-07-20T12:35:34;6.28;;;2.20;;
63016;SDS011;50274;45.640;11.756;2023-07-20T12:38:00;5.90;;;1.95;;
63016;SDS011;50274;45.640;11.756;2023-07-20T12:40:27;5.68;;;2.20;;
63016;SDS011;50274;45.640;11.756;2023-07-20T12:42:55;5.15;;;1.98;;
63016;SDS011;50274;45.640;11.756;2023-07-20T12:45:25;4.13;;;1.80;;
63016;SDS011;50274;45.640;11.756;2023-07-20T12:47:51;6.57;;;2.40;;
63016;SDS011;50274;45.640;11.756;2023-07-20T12:50:17;5.50;;;2.10;;
63016;SDS011;50274;45.640;11.756;2023-07-20T12:52:45;5.30;;;2.30;;
63016;SDS011;50274;45.640;11.756;2023-07-20T12:55:13;7.03;;;2.30;;
63016;SDS011;50274;45.640;11.756;2023-07-20T12:57:40;5.67;;;2.03;;
63016;SDS011;50274;45.640;11.756;2023-07-20T13:00:10;8.70;;;2.53;;
63016;SDS011;50274;45.640;11.756;2023-07-20T13:02:37;6.00;;;2.30;;
63016;SDS011;50274;45.640;11.756;2023-07-20T13:05:06;5.97;;;2.20;;
63016;SDS011;50274;45.640;11.756;2023-07-20T13:07:37;5.60;;;2.30;;
63016;SDS011;50274;45.640;11.756;2023-07-20T13:10:08;6.07;;;2.53;;
63016;SDS011;50274;45.640;11.756;2023-07-20T13:12:36;5.72;;;2.10;;
63016;SDS011;50274;45.640;11.756;2023-07-20T13:15:03;5.70;;;2.22;;
63016;SDS011;50274;45.640;11.756;2023-07-20T13:17:31;6.60;;;2.20;;
63016;SDS011;50274;45.640;11.756;2023-07-20T13:20:00;5.53;;;2.17;;
63016;SDS011;50274;45.640;11.756;2023-07-20T13:22:31;6.37;;;2.83;;
63016;SDS011;50274;45.640;11.756;2023-07-20T13:25:00;4.72;;;2.33;;
63016;SDS011;50274;45.640;11.756;2023-07-20T13:27:26;5.75;;;2.20;;
63016;SDS011;50274;45.640;11.756;2023-07-20T13:29:54;6.40;;;2.33;;
63016;SDS011;50274;45.640;11.756;2023-07-20T13:32:21;6.75;;;2.30;;
63016;SDS011;50274;45.640;11.756;2023-07-20T13:34:50;5.27;;;2.03;;
63016;SDS011;50274;45.640;11.756;2023-07-20T13:37:22;5.95;;;2.25;;
63016;SDS011;50274;45.640;11.756;2023-07-20T13:39:50;6.40;;;2.30;;
63016;SDS011;50274;45.640;11.756;2023-07-20T13:42:16;6.30;;;2.38;;
63016;SDS011;50274;45.640;11.756;2023-07-20T13:44:42;6.53;;;2.30;;
63016;SDS011;50274;45.640;11.756;2023-07-20T13:47:13;5.45;;;2.30;;
63016;SDS011;50274;45.640;11.756;2023-07-20T13:49:39;8.38;;;2.85;;
63016;SDS011;50274;45.640;11.756;2023-07-20T13:52:07;5.50;;;2.10;;
63016;SDS011;50274;45.640;11.756;2023-07-20T13:54:38;6.18;;;1.88;;
63016;SDS011;50274;45.640;11.756;2023-07-20T13:57:09;6.80;;;2.50;;
63016;SDS011;50274;45.640;11.756;2023-07-20T14:03:01;6.55;;;2.38;;
63016;SDS011;50274;45.640;11.756;2023-07-20T14:05:28;8.38;;;2.55;;
63016;SDS011;50274;45.640;11.756;2023-07-20T14:07:56;5.05;;;2.10;;
63016;SDS011;50274;45.640;11.756;2023-07-20T14:10:23;7.50;;;2.67;;
63016;SDS011;50274;45.640;11.756;2023-07-20T14:12:54;7.68;;;2.22;;
63016;SDS011;50274;45.640;11.756;2023-07-20T14:15:23;5.93;;;2.25;;
63016;SDS011;50274;45.640;11.756;2023-07-20T14:18:03;6.55;;;2.35;;
63016;SDS011;50274;45.640;11.756;2023-07-20T14:20:52;6.68;;;2.75;;
63016;SDS011;50274;45.640;11.756;2023-07-20T14:23:42;6.53;;;2.60;;
63016;SDS011;50274;45.640;11.756;2023-07-20T14:26:17;6.85;;;2.47;;
63016;SDS011;50274;45.640;11.756;2023-07-20T14:28:43;8.35;;;2.50;;
63016;SDS011;50274;45.640;11.756;2023-07-20T14:31:13;6.53;;;2.50;;
63016;SDS011;50274;45.640;11.756;2023-07-20T14:33:39;6.28;;;2.50;;
63016;SDS011;50274;45.640;11.756;2023-07-20T14:36:10;7.13;;;2.40;;
63016;SDS011;50274;45.640;11.756;2023-07-20T14:38:38;6.05;;;2.20;;
63016;SDS011;50274;45.640;11.756;2023-07-20T14:41:20;6.45;;;2.38;;
63016;SDS011;50274;45.640;11.756;2023-07-20T14:44:24;6.30;;;2.30;;
63016;SDS011;50274;45.640;11.756;2023-07-20T14:47:20;7.63;;;2.00;;
63016;SDS011;50274;45.640;11.756;2023-07-20T14:50:02;6.97;;;2.60;;
63016;SDS011;50274;45.640;11.756;2023-07-20T14:52:39;5.03;;;2.13;;
63016;SDS011;50274;45.640;11.756;2023-07-20T14:55:05;5.65;;;2.13;;
63016;SDS011;50274;45.640;11.756;2023-07-20T14:57:36;7.80;;;2.55;;
63016;SDS011;50274;45.640;11.756;2023-07-20T15:00:05;6.40;;;2.30;;
63016;SDS011;50274;45.640;11.756;2023-07-20T15:02:33;7.33;;;2.17;;
63016;SDS011;50274;45.640;11.756;2023-07-20T15:05:02;7.45;;;2.17;;
63016;SDS011;50274;45.640;11.756;2023-07-20T15:07:31;5.70;;;2.35;;
63016;SDS011;50274;45.640;11.756;2023-07-20T15:10:00;7.78;;;2.38;;
63016;SDS011;50274;45.640;11.756;2023-07-20T15:12:28;6.13;;;2.20;;
63016;SDS011;50274;45.640;11.756;2023-07-20T15:15:06;6.67;;;2.13;;
63016;SDS011;50274;45.640;11.756;2023-07-20T15:17:36;5.97;;;2.17;;
63016;SDS011;50274;45.640;11.756;2023-07-20T15:20:06;7.15;;;2.40;;
63016;SDS011;50274;45.640;11.756;2023-07-20T15:22:37;7.25;;;2.60;;
63016;SDS011;50274;45.640;11.756;2023-07-20T15:25:09;6.93;;;2.30;;
63016;SDS011;50274;45.640;11.756;2023-07-20T15:27:39;9.17;;;2.30;;
63016;SDS011;50274;45.640;11.756;2023-07-20T15:30:11;5.95;;;2.60;;
63016;SDS011;50274;45.640;11.756;2023-07-20T15:32:37;7.18;;;2.38;;
63016;SDS011;50274;45.640;11.756;2023-07-20T15:35:08;6.88;;;2.40;;
63016;SDS011;50274;45.640;11.756;2023-07-20T15:37:38;6.70;;;2.50;;
63016;SDS011;50274;45.640;11.756;2023-07-20T15:40:04;6.70;;;2.73;;
63016;SDS011;50274;45.640;11.756;2023-07-20T15:42:31;6.63;;;2.45;;
63016;SDS011;50274;45.640;11.756;2023-07-20T15:44:59;5.70;;;2.20;;
63016;SDS011;50274;45.640;11.756;2023-07-20T15:47:27;6.57;;;2.83;;
63016;SDS011;50274;45.640;11.756;2023-07-20T15:49:53;7.80;;;2.70;;
63016;SDS011;50274;45.640;11.756;2023-07-20T15:52:19;6.97;;;2.20;;
63016;SDS011;50274;45.640;11.756;2023-07-20T15:54:45;6.95;;;2.50;;
63016;SDS011;50274;45.640;11.756;2023-07-20T15:57:11;6.95;;;2.50;;
63016;SDS011;50274;45.640;11.756;2023-07-20T15:59:39;5.30;;;2.20;;
63016;SDS011;50274;45.640;11.756;2023-07-20T16:02:07;5.50;;;2.03;;
63016;SDS011;50274;45.640;11.756;2023-07-20T16:04:38;6.95;;;2.80;;
63016;SDS011;50274;45.640;11.756;2023-07-20T16:07:06;7.43;;;3.13;;